Time;durP1;ratioP1;P1;durP2;ratioP2;P2;SDS_P1;SDS_P2;PMS_P1;PMS_P2;Temp;Humidity;BMP_temperature;BMP_pressure;BME280_temperature;BME280_humidity;BME280_pressure;Samples;Min_cycle;Max_cycle;Signal;HPM_P1;HPM_P2
2022/03/15 00:00:34;;;;;;;16.70;8.30;;;8.30;99.90;;;;;;6224729;23;20209;-77
2022/03/15 00:03:01;;;;;;;11.97;7.33;;;8.30;99.90;;;;;;6204780;23;20176;-76
2022/03/15 00:05:29;;;;;;;15.90;7.20;;;8.30;99.90;;;;;;6204177;23;20584;-77
2022/03/15 00:07:56;;;;;;;11.67;6.27;;;8.30;99.90;;;;;;6205046;23;20170;-77
2022/03/15 00:10:23;;;;;;;14.90;6.13;;;8.30;99.90;;;;;;6203268;23;20170;-77
2022/03/15 00:12:51;;;;;;;12.73;6.33;;;8.30;99.90;;;;;;6204578;23;20202;-77
2022/03/15 00:15:19;;;;;;;15.80;6.20;;;8.30;99.90;;;;;;6204907;23;20186;-76
2022/03/15 00:17:46;;;;;;;13.00;6.43;;;8.20;99.90;;;;;;6204640;23;20174;-77
2022/03/15 00:20:15;;;;;;;11.50;5.50;;;8.20;99.90;;;;;;6204884;23;20208;-77
2022/03/15 00:22:44;;;;;;;11.23;6.33;;;8.10;99.90;;;;;;6206488;23;20205;-76
2022/03/15 00:25:16;;;;;;;15.80;6.50;;;8.10;99.90;;;;;;6205809;23;20647;-76
2022/03/15 00:27:44;;;;;;;14.00;5.30;;;8.00;99.90;;;;;;6206682;23;20236;-77
2022/03/15 00:30:11;;;;;;;12.83;6.30;;;8.00;99.90;;;;;;6206740;23;20193;-77
2022/03/15 00:32:38;;;;;;;8.23;5.17;;;8.00;99.90;;;;;;6205916;23;20617;-77
2022/03/15 00:35:08;;;;;;;12.77;5.57;;;7.90;99.90;;;;;;6207066;23;20174;-79
2022/03/15 00:37:36;;;;;;;11.73;6.03;;;7.90;99.90;;;;;;6206569;23;20174;-77
2022/03/15 00:40:06;;;;;;;8.20;4.60;;;7.90;99.90;;;;;;6206577;23;20198;-77
2022/03/15 00:42:33;;;;;;;8.40;4.93;;;7.80;99.90;;;;;;6206193;23;20167;-77
2022/03/15 00:45:02;;;;;;;9.93;5.20;;;7.80;99.90;;;;;;6206409;23;20178;-77
2022/03/15 00:47:29;;;;;;;12.30;5.60;;;7.80;99.90;;;;;;6206389;23;20555;-77
2022/03/15 00:49:56;;;;;;;11.60;6.43;;;7.80;99.90;;;;;;6206592;23;20176;-76
2022/03/15 00:52:22;;;;;;;15.40;6.47;;;7.80;99.90;;;;;;6205677;23;20174;-76
2022/03/15 00:54:49;;;;;;;10.80;5.10;;;7.80;99.90;;;;;;6206063;23;20181;-77
2022/03/15 00:57:18;;;;;;;13.23;5.73;;;7.90;99.90;;;;;;6206176;23;20166;-76
2022/03/15 00:59:45;;;;;;;12.67;5.87;;;7.90;99.90;;;;;;6206459;23;20201;-76
2022/03/15 01:02:12;;;;;;;10.90;5.67;;;7.90;99.90;;;;;;6206561;23;20185;-75
2022/03/15 01:04:38;;;;;;;9.07;4.87;;;7.80;99.90;;;;;;6206443;23;20170;-76
2022/03/15 01:07:05;;;;;;;9.20;5.17;;;7.80;99.90;;;;;;6205782;23;20170;-75
2022/03/15 01:09:32;;;;;;;12.23;5.43;;;7.80;99.90;;;;;;6206456;23;20174;-77
2022/03/15 01:11:59;;;;;;;10.33;5.00;;;7.80;99.90;;;;;;6206734;23;20233;-76
2022/03/15 01:14:27;;;;;;;6.23;4.60;;;7.70;99.90;;;;;;6204780;23;20286;-76
2022/03/15 01:16:55;;;;;;;8.27;4.33;;;7.70;99.90;;;;;;6205779;23;20209;-76
2022/03/15 01:19:22;;;;;;;8.33;4.70;;;7.70;99.90;;;;;;6206077;23;20241;-76
2022/03/15 01:21:49;;;;;;;7.97;4.80;;;7.70;99.90;;;;;;6205063;23;20439;-77
2022/03/15 01:24:17;;;;;;;9.63;4.93;;;7.70;99.90;;;;;;6205251;23;20245;-77
2022/03/15 01:26:43;;;;;;;8.93;4.73;;;7.70;99.90;;;;;;6206756;23;20177;-75
2022/03/15 01:29:11;;;;;;;15.17;6.53;;;7.70;99.90;;;;;;6205532;23;20186;-76
2022/03/15 01:31:39;;;;;;;10.40;6.07;;;7.70;99.90;;;;;;6206038;23;20177;-77
2022/03/15 01:34:07;;;;;;;8.20;5.40;;;7.70;99.90;;;;;;6206287;23;20223;-75
2022/03/15 01:36:34;;;;;;;10.13;5.63;;;7.70;99.90;;;;;;6205573;23;20209;-76
2022/03/15 01:39:00;;;;;;;10.20;5.93;;;7.70;99.90;;;;;;6206388;23;20555;-76
2022/03/15 01:41:27;;;;;;;8.97;5.50;;;7.70;99.90;;;;;;6204500;23;20217;-76
2022/03/15 01:43:54;;;;;;;17.33;6.63;;;7.70;99.90;;;;;;6207328;23;20182;-76
2022/03/15 01:46:21;;;;;;;11.27;5.70;;;7.70;99.90;;;;;;6206278;23;20532;-76
2022/03/15 01:48:49;;;;;;;10.40;5.13;;;7.70;99.90;;;;;;6205734;23;20232;-76
2022/03/15 01:51:16;;;;;;;10.00;5.57;;;7.80;99.90;;;;;;6205190;23;20170;-77
2022/03/15 01:53:43;;;;;;;7.30;4.70;;;7.80;99.90;;;;;;6205739;23;20174;-77
2022/03/15 01:56:10;;;;;;;11.97;6.20;;;7.80;99.90;;;;;;6204257;23;20614;-78
2022/03/15 01:58:37;;;;;;;12.33;5.77;;;7.80;99.90;;;;;;6204811;23;20181;-77
2022/03/15 02:01:04;;;;;;;14.47;5.60;;;7.80;99.90;;;;;;6205958;23;20202;-77
2022/03/15 02:03:32;;;;;;;11.13;5.70;;;7.80;99.90;;;;;;6204474;23;20170;-76
2022/03/15 02:06:01;;;;;;;7.37;4.40;;;7.80;99.90;;;;;;6204870;23;20174;-77
2022/03/15 02:08:28;;;;;;;8.13;4.93;;;7.80;99.90;;;;;;6205330;23;20838;-77
2022/03/15 02:10:55;;;;;;;12.87;5.30;;;7.80;99.90;;;;;;6205225;23;20808;-79
2022/03/15 02:13:22;;;;;;;14.57;6.27;;;7.80;99.90;;;;;;6205217;23;20200;-76
2022/03/15 02:15:49;;;;;;;11.03;5.47;;;7.80;99.90;;;;;;6205365;23;20174;-79
2022/03/15 02:18:18;;;;;;;10.40;5.33;;;7.70;99.90;;;;;;6205248;23;20178;-77
2022/03/15 02:20:46;;;;;;;12.40;6.23;;;7.70;99.90;;;;;;6206541;23;20197;-77
2022/03/15 02:23:14;;;;;;;10.67;5.73;;;7.70;99.90;;;;;;6205266;23;20708;-77
2022/03/15 02:25:41;;;;;;;10.40;5.93;;;7.70;99.90;;;;;;6205244;23;20174;-77
2022/03/15 02:28:08;;;;;;;8.53;5.93;;;7.60;99.90;;;;;;6205638;23;20170;-78
2022/03/15 02:30:35;;;;;;;10.53;5.00;;;7.60;99.90;;;;;;6204068;23;20166;-77
2022/03/15 02:33:02;;;;;;;7.53;4.57;;;7.60;99.90;;;;;;6204978;23;20417;-78
2022/03/15 02:35:29;;;;;;;7.27;4.17;;;7.50;99.90;;;;;;6205342;23;20264;-77
2022/03/15 02:37:57;;;;;;;8.00;5.13;;;7.40;99.90;;;;;;6205070;23;20180;-77
2022/03/15 02:40:23;;;;;;;7.83;5.00;;;7.40;99.90;;;;;;6205428;23;20190;-77
2022/03/15 02:42:50;;;;;;;6.93;4.77;;;7.40;99.90;;;;;;6204889;23;20872;-77
2022/03/15 02:45:17;;;;;;;8.30;5.30;;;7.30;99.90;;;;;;6203143;23;20174;-76
2022/03/15 02:47:47;;;;;;;7.17;4.30;;;7.20;99.90;;;;;;6205478;23;20578;-77
2022/03/15 02:50:14;;;;;;;5.57;3.73;;;7.20;99.90;;;;;;6204944;23;20834;-77
2022/03/15 02:52:41;;;;;;;6.00;4.00;;;7.20;99.90;;;;;;6205211;23;20174;-78
2022/03/15 02:55:10;;;;;;;7.03;4.83;;;7.10;99.90;;;;;;6205432;23;20178;-78
2022/03/15 02:57:36;;;;;;;11.50;5.13;;;7.00;99.90;;;;;;6204312;23;20170;-76
2022/03/15 03:00:04;;;;;;;6.73;4.07;;;7.00;99.90;;;;;;6204875;23;20186;-76
2022/03/15 03:02:32;;;;;;;7.93;4.83;;;6.90;99.90;;;;;;6204856;23;20198;-77
2022/03/15 03:04:58;;;;;;;8.00;4.70;;;6.90;99.90;;;;;;6205102;23;20659;-78
2022/03/15 03:07:26;;;;;;;8.47;4.50;;;6.90;99.90;;;;;;6204102;23;20394;-76
2022/03/15 03:09:53;;;;;;;8.10;5.20;;;6.80;99.90;;;;;;6204803;23;20550;-76
2022/03/15 03:12:23;;;;;;;5.27;4.23;;;6.80;99.90;;;;;;6204392;23;20201;-76
2022/03/15 03:14:50;;;;;;;8.23;4.77;;;6.80;99.90;;;;;;6205615;23;20184;-75
2022/03/15 03:17:17;;;;;;;6.87;4.77;;;6.80;99.90;;;;;;6205305;23;20178;-76
2022/03/15 03:19:44;;;;;;;8.27;5.03;;;6.80;99.90;;;;;;6205542;23;20174;-76
2022/03/15 03:22:11;;;;;;;10.67;5.17;;;6.80;99.90;;;;;;6204900;23;20256;-76
2022/03/15 03:24:38;;;;;;;7.40;4.70;;;6.80;99.90;;;;;;6205387;23;20213;-76
2022/03/15 03:27:05;;;;;;;8.53;5.33;;;6.80;99.90;;;;;;6205034;23;20183;-77
2022/03/15 03:29:34;;;;;;;7.60;4.77;;;6.80;99.90;;;;;;6204837;23;20288;-76
2022/03/15 03:32:01;;;;;;;8.80;5.30;;;6.80;99.90;;;;;;6205260;23;20192;-76
2022/03/15 03:34:28;;;;;;;6.17;4.37;;;6.80;99.90;;;;;;6203796;23;20528;-75
2022/03/15 03:36:55;;;;;;;7.23;5.03;;;6.80;99.90;;;;;;6204998;23;20178;-76
2022/03/15 03:39:22;;;;;;;12.40;6.10;;;6.80;99.90;;;;;;6204879;23;20558;-76
2022/03/15 03:41:49;;;;;;;8.20;4.67;;;6.80;99.90;;;;;;6205029;23;20198;-77
2022/03/15 03:44:16;;;;;;;8.67;5.50;;;6.80;99.90;;;;;;6204955;23;20181;-77
2022/03/15 03:46:44;;;;;;;12.17;6.33;;;6.80;99.90;;;;;;6204522;23;20170;-77
2022/03/15 03:49:11;;;;;;;10.80;6.77;;;6.80;99.90;;;;;;6204220;23;20244;-76
2022/03/15 03:51:38;;;;;;;11.27;6.80;;;6.90;99.90;;;;;;6205088;23;20173;-77
2022/03/15 03:54:05;;;;;;;11.07;6.60;;;6.90;99.90;;;;;;6204810;23;20174;-77
2022/03/15 03:56:33;;;;;;;13.60;8.60;;;6.90;99.90;;;;;;6203876;23;20574;-78
2022/03/15 03:59:01;;;;;;;14.57;8.33;;;6.90;99.90;;;;;;6206381;23;20201;-77
2022/03/15 04:01:27;;;;;;;12.53;8.17;;;7.00;99.90;;;;;;6205896;23;20268;-77
2022/03/15 04:03:59;;;;;;;13.30;8.13;;;7.00;99.90;;;;;;6206676;23;20547;-78
2022/03/15 04:06:26;;;;;;;14.00;8.27;;;7.00;99.90;;;;;;6206963;23;20280;-77
2022/03/15 04:08:56;;;;;;;15.47;9.70;;;7.00;99.90;;;;;;6207055;23;20880;-78
2022/03/15 04:11:23;;;;;;;19.27;11.47;;;7.00;99.90;;;;;;6206253;23;20213;-76
2022/03/15 04:13:49;;;;;;;17.00;11.03;;;7.00;99.90;;;;;;6206677;23;20210;-76
2022/03/15 04:16:16;;;;;;;16.63;9.70;;;7.00;99.90;;;;;;6206128;23;20166;-76
2022/03/15 04:18:43;;;;;;;19.23;10.10;;;7.00;99.90;;;;;;6206685;23;20561;-76
2022/03/15 04:21:11;;;;;;;15.80;10.83;;;7.10;99.90;;;;;;6207468;23;20198;-77
2022/03/15 04:23:38;;;;;;;15.57;9.87;;;7.10;99.90;;;;;;6207381;23;20483;-78
2022/03/15 04:26:05;;;;;;;15.90;11.73;;;7.00;99.90;;;;;;6206569;23;20185;-78
2022/03/15 04:28:32;;;;;;;17.70;10.43;;;7.00;99.90;;;;;;6207286;23;20178;-76
2022/03/15 04:30:59;;;;;;;15.80;10.80;;;7.00;99.90;;;;;;6206202;23;20170;-76
2022/03/15 04:33:25;;;;;;;16.33;10.57;;;7.00;99.90;;;;;;6206587;23;20174;-76
2022/03/15 04:35:52;;;;;;;16.67;10.73;;;7.00;99.90;;;;;;6206535;23;20166;-76
2022/03/15 04:38:20;;;;;;;17.90;10.90;;;7.00;99.90;;;;;;6206071;23;20174;-76
2022/03/15 04:40:47;;;;;;;19.70;12.60;;;7.00;99.90;;;;;;6205884;23;20170;-77
2022/03/15 04:43:14;;;;;;;19.90;11.97;;;7.00;99.90;;;;;;6206904;23;20174;-77
2022/03/15 04:45:41;;;;;;;18.30;12.27;;;7.00;99.90;;;;;;6206383;23;20174;-77
2022/03/15 04:48:08;;;;;;;22.23;14.13;;;7.00;99.90;;;;;;6206653;23;20177;-77
2022/03/15 04:50:35;;;;;;;19.37;13.37;;;7.00;99.90;;;;;;6206241;23;20186;-77
2022/03/15 04:53:01;;;;;;;22.07;14.37;;;7.00;99.90;;;;;;6205660;23;20181;-77
2022/03/15 04:55:30;;;;;;;22.97;14.17;;;7.10;99.90;;;;;;6206077;23;20178;-77
2022/03/15 04:57:56;;;;;;;25.37;15.87;;;7.10;99.90;;;;;;6205633;23;20714;-80
2022/03/15 05:00:23;;;;;;;28.93;16.47;;;7.10;99.90;;;;;;6205500;23;20627;-78
2022/03/15 05:02:50;;;;;;;32.20;16.47;;;7.10;99.90;;;;;;6205625;23;20197;-79
2022/03/15 05:05:17;;;;;;;27.23;17.57;;;7.20;99.90;;;;;;6205861;23;20435;-78
2022/03/15 05:07:44;;;;;;;28.90;17.07;;;7.20;99.90;;;;;;6206216;23;20185;-78
2022/03/15 05:12:57;;;;;;;34.70;19.60;;;7.20;99.90;;;;;;6205858;23;20310;-77
2022/03/15 05:15:24;;;;;;;34.93;19.13;;;7.20;99.90;;;;;;6206648;23;20551;-76
2022/03/15 05:17:50;;;;;;;26.43;17.83;;;7.20;99.90;;;;;;6206491;23;20170;-77
2022/03/15 05:20:18;;;;;;;30.97;18.00;;;7.10;99.90;;;;;;6205321;23;20181;-78
2022/03/15 05:22:44;;;;;;;31.30;19.60;;;7.20;99.90;;;;;;6206577;23;20194;-78
2022/03/15 05:25:13;;;;;;;32.30;19.27;;;7.20;99.90;;;;;;6205822;23;20439;-77
2022/03/15 05:27:40;;;;;;;26.33;19.10;;;7.20;99.90;;;;;;6205811;23;20178;-77
2022/03/15 05:30:10;;;;;;;34.03;19.70;;;7.20;99.90;;;;;;6206120;23;20185;-77
2022/03/15 05:32:37;;;;;;;32.97;19.00;;;7.20;99.90;;;;;;6205970;23;20181;-77
2022/03/15 05:35:04;;;;;;;33.00;19.23;;;7.20;99.90;;;;;;6205421;23;20181;-78
2022/03/15 05:37:31;;;;;;;27.70;18.17;;;7.20;99.90;;;;;;6206402;23;20185;-78
2022/03/15 05:39:58;;;;;;;24.00;17.60;;;7.10;99.90;;;;;;6206376;23;20169;-78
2022/03/15 05:42:25;;;;;;;31.83;19.77;;;7.20;99.90;;;;;;6204741;23;20272;-78
2022/03/15 05:44:52;;;;;;;26.10;18.07;;;7.10;99.90;;;;;;6205809;23;20392;-78
2022/03/15 05:47:20;;;;;;;25.50;16.80;;;7.10;99.90;;;;;;6206487;23;20181;-79
2022/03/15 05:49:47;;;;;;;26.73;17.57;;;7.10;99.90;;;;;;6205623;23;20181;-78
2022/03/15 05:52:13;;;;;;;29.27;17.87;;;7.10;99.90;;;;;;6206017;23;20177;-78
2022/03/15 05:54:40;;;;;;;31.17;18.10;;;7.10;99.90;;;;;;6205501;23;20173;-78
2022/03/15 05:57:07;;;;;;;30.87;17.90;;;7.10;99.90;;;;;;6205517;23;20186;-78
2022/03/15 05:59:34;;;;;;;28.90;17.70;;;7.10;99.90;;;;;;6206093;23;20644;-75
2022/03/15 06:02:01;;;;;;;25.60;17.13;;;7.10;99.90;;;;;;6206665;23;20718;-76
2022/03/15 06:04:29;;;;;;;24.03;16.80;;;7.10;99.90;;;;;;6206980;23;20178;-76
2022/03/15 06:06:56;;;;;;;27.03;16.60;;;7.10;99.90;;;;;;6206427;23;20181;-76
2022/03/15 06:09:24;;;;;;;21.70;15.67;;;7.10;99.90;;;;;;6205539;23;20185;-75
2022/03/15 06:11:51;;;;;;;23.17;15.00;;;7.10;99.90;;;;;;6206261;23;20174;-76
2022/03/15 06:14:18;;;;;;;22.23;15.83;;;7.10;99.90;;;;;;6205831;23;20170;-77
2022/03/15 06:16:45;;;;;;;23.63;15.73;;;7.00;99.90;;;;;;6205101;23;20477;-77
2022/03/15 06:19:12;;;;;;;25.03;15.53;;;7.00;99.90;;;;;;6205152;23;20253;-77
2022/03/15 06:21:41;;;;;;;25.50;16.27;;;7.00;99.90;;;;;;6204592;23;20493;-77
2022/03/15 06:24:08;;;;;;;24.03;16.93;;;7.00;99.90;;;;;;6205508;23;20212;-77
2022/03/15 06:26:35;;;;;;;22.00;15.73;;;7.00;99.90;;;;;;6205296;23;20174;-77
2022/03/15 06:29:02;;;;;;;21.60;15.27;;;7.00;99.90;;;;;;6205333;23;20201;-75
2022/03/15 06:31:29;;;;;;;22.40;15.97;;;7.00;99.90;;;;;;6204499;23;20544;-77
2022/03/15 06:33:56;;;;;;;25.03;15.00;;;7.00;99.90;;;;;;6205991;23;20193;-77
2022/03/15 06:36:23;;;;;;;20.80;15.40;;;7.00;99.90;;;;;;6205058;23;20182;-77
2022/03/15 06:38:51;;;;;;;22.03;15.77;;;7.00;99.90;;;;;;6204877;23;20181;-78
2022/03/15 06:41:18;;;;;;;22.27;15.17;;;7.00;99.90;;;;;;6205275;23;20166;-76
2022/03/15 06:43:45;;;;;;;23.33;15.57;;;7.00;99.90;;;;;;6204810;23;20174;-77
2022/03/15 06:46:12;;;;;;;20.50;14.20;;;7.10;99.90;;;;;;6205890;23;20173;-78
2022/03/15 06:48:40;;;;;;;21.90;15.40;;;7.10;99.90;;;;;;6205407;23;20864;-76
2022/03/15 06:51:07;;;;;;;24.50;15.53;;;7.10;99.90;;;;;;6203579;23;20181;-77
2022/03/15 06:53:33;;;;;;;20.83;15.30;;;7.10;99.90;;;;;;6204538;23;20178;-76
2022/03/15 06:56:01;;;;;;;21.93;14.83;;;7.10;99.90;;;;;;6205676;23;20170;-77
2022/03/15 06:58:28;;;;;;;22.53;15.67;;;7.10;99.90;;;;;;6203838;23;20746;-77
2022/03/15 07:00:55;;;;;;;25.97;16.13;;;7.10;99.90;;;;;;6205527;23;20194;-78
2022/03/15 07:03:22;;;;;;;27.73;16.97;;;7.20;99.90;;;;;;6204909;23;20198;-78
2022/03/15 07:05:49;;;;;;;27.00;17.23;;;7.20;99.90;;;;;;6205154;23;20186;-77
2022/03/15 07:08:16;;;;;;;26.97;17.37;;;7.20;99.90;;;;;;6204598;23;20227;-78
2022/03/15 07:10:43;;;;;;;29.93;17.63;;;7.30;99.90;;;;;;6205227;23;20626;-77
2022/03/15 07:13:11;;;;;;;25.27;16.53;;;7.30;99.90;;;;;;6204074;23;20202;-76
2022/03/15 07:15:38;;;;;;;23.87;15.87;;;7.30;99.90;;;;;;6205053;23;20171;-77
2022/03/15 07:18:05;;;;;;;26.63;16.67;;;7.40;99.90;;;;;;6205633;23;20174;-76
2022/03/15 07:20:31;;;;;;;32.47;18.10;;;7.40;99.90;;;;;;6204771;23;20177;-77
2022/03/15 07:22:58;;;;;;;26.63;18.10;;;7.40;99.90;;;;;;6205010;23;20201;-75
2022/03/15 07:25:25;;;;;;;30.43;17.77;;;7.50;99.90;;;;;;6204407;23;20177;-76
2022/03/15 07:27:52;;;;;;;24.53;17.37;;;7.50;99.90;;;;;;6203919;23;20173;-78
2022/03/15 07:30:21;;;;;;;22.03;16.10;;;7.60;99.90;;;;;;6204770;23;20231;-77
2022/03/15 07:32:47;;;;;;;28.73;18.83;;;7.60;99.90;;;;;;6205416;23;20178;-77
2022/03/15 07:35:14;;;;;;;29.17;17.03;;;7.70;99.90;;;;;;6204522;23;20547;-77
2022/03/15 07:37:50;;;;;;;29.77;18.23;;;7.70;99.90;;;;;;6204966;23;20180;-77
2022/03/15 07:40:16;;;;;;;29.67;17.73;;;7.70;99.90;;;;;;6203395;23;20169;-77
2022/03/15 07:42:43;;;;;;;31.50;18.20;;;7.80;99.90;;;;;;6205153;23;20508;-77
2022/03/15 07:48:55;;;;;;;32.93;19.33;;;7.90;99.90;;;;;;6081578;23;20228;-77
2022/03/15 07:51:22;;;;;;;30.07;18.43;;;8.00;99.90;;;;;;6204395;23;20875;-77
2022/03/15 07:53:49;;;;;;;34.77;19.53;;;8.10;99.90;;;;;;6205398;23;20174;-77
2022/03/15 07:56:16;;;;;;;35.90;21.20;;;8.10;99.90;;;;;;6200192;23;20178;-77
2022/03/15 07:58:43;;;;;;;29.23;19.17;;;8.20;99.90;;;;;;6201794;23;20681;-76
2022/03/15 08:01:10;;;;;;;34.80;20.73;;;8.20;99.90;;;;;;6201691;23;20217;-77
2022/03/15 08:03:36;;;;;;;27.27;18.77;;;8.30;99.90;;;;;;6201739;23;20205;-77
2022/03/15 08:06:05;;;;;;;30.17;20.13;;;8.40;99.90;;;;;;6103064;23;20510;-78
2022/03/15 08:08:32;;;;;;;25.20;17.53;;;8.40;99.90;;;;;;6204532;23;20171;-77
2022/03/15 08:10:58;;;;;;;37.03;21.07;;;8.50;99.90;;;;;;6204303;23;20177;-78
2022/03/15 08:13:25;;;;;;;28.33;17.20;;;8.50;99.90;;;;;;6202996;23;20211;-77
2022/03/15 08:15:52;;;;;;;29.13;18.63;;;8.50;99.90;;;;;;6204114;23;20185;-77
2022/03/15 08:18:19;;;;;;;29.37;16.93;;;8.60;99.90;;;;;;6205401;23;20202;-77
2022/03/15 08:20:46;;;;;;;25.87;17.07;;;8.60;99.90;;;;;;6204404;23;20200;-76
2022/03/15 08:23:14;;;;;;;27.73;18.00;;;8.70;99.90;;;;;;6201069;23;20205;-78
2022/03/15 08:25:41;;;;;;;25.93;16.27;;;8.70;99.90;;;;;;6203499;23;20185;-76
2022/03/15 08:28:08;;;;;;;27.33;18.03;;;8.80;99.90;;;;;;6203191;23;20189;-77
2022/03/15 08:30:35;;;;;;;30.70;18.20;;;8.90;99.90;;;;;;6201889;23;20452;-78
2022/03/15 08:33:01;;;;;;;23.97;16.00;;;9.00;99.90;;;;;;6201743;23;20341;-78
2022/03/15 08:35:28;;;;;;;26.00;17.37;;;9.10;99.90;;;;;;6201036;23;20194;-77
2022/03/15 08:37:55;;;;;;;26.07;17.87;;;9.10;99.90;;;;;;6202277;23;20185;-77
2022/03/15 08:40:24;;;;;;;29.37;17.73;;;9.20;99.90;;;;;;6203611;23;20185;-77
2022/03/15 08:42:51;;;;;;;25.97;16.60;;;9.30;99.90;;;;;;6202825;23;20189;-77
2022/03/15 08:45:18;;;;;;;27.13;17.63;;;9.40;99.90;;;;;;6204803;23;20170;-76
2022/03/15 08:47:46;;;;;;;23.03;16.20;;;9.40;99.90;;;;;;6204257;23;20187;-76
2022/03/15 08:50:12;;;;;;;29.93;17.23;;;9.50;99.90;;;;;;6203227;23;20228;-76
2022/03/15 08:52:39;;;;;;;28.90;18.33;;;9.60;99.90;;;;;;6205271;23;20174;-76
2022/03/15 08:55:07;;;;;;;22.07;16.47;;;9.70;99.90;;;;;;6206444;23;20174;-76
2022/03/15 08:57:35;;;;;;;23.77;15.70;;;9.80;99.90;;;;;;6206036;23;20178;-77
2022/03/15 09:00:03;;;;;;;32.53;17.17;;;9.90;99.90;;;;;;6205765;23;20258;-75
2022/03/15 09:02:30;;;;;;;26.87;15.80;;;10.00;99.90;;;;;;6204909;23;20659;-76
2022/03/15 09:04:56;;;;;;;22.33;15.00;;;10.10;99.90;;;;;;6205726;23;20177;-77
2022/03/15 09:07:23;;;;;;;22.87;15.80;;;10.30;99.90;;;;;;6205593;23;20594;-76
2022/03/15 09:09:50;;;;;;;25.83;14.77;;;10.40;99.90;;;;;;6206285;23;20174;-76
2022/03/15 09:12:17;;;;;;;28.70;15.87;;;10.50;99.90;;;;;;6205243;23;20213;-75
2022/03/15 09:14:46;;;;;;;24.47;15.40;;;10.60;99.90;;;;;;6205902;23;20429;-76
2022/03/15 09:17:13;;;;;;;36.10;16.00;;;10.80;99.90;;;;;;6206411;23;20180;-77
2022/03/15 09:19:40;;;;;;;22.07;14.40;;;10.90;99.90;;;;;;6206887;23;20174;-75
2022/03/15 09:22:07;;;;;;;28.17;15.40;;;11.10;99.90;;;;;;6205857;23;20166;-75
2022/03/15 09:24:36;;;;;;;25.10;15.20;;;11.30;99.90;;;;;;6205482;23;20185;-77
2022/03/15 09:27:03;;;;;;;24.77;13.33;;;11.40;99.90;;;;;;6205770;23;20228;-76
2022/03/15 09:29:30;;;;;;;26.90;13.33;;;11.60;99.90;;;;;;6205758;23;20174;-76
2022/03/15 09:31:59;;;;;;;21.73;12.03;;;11.70;99.90;;;;;;6204996;23;20233;-76
2022/03/15 09:34:27;;;;;;;19.07;11.57;;;11.80;99.90;;;;;;6204259;23;20170;-76
2022/03/15 09:36:54;;;;;;;19.77;12.80;;;12.00;99.90;;;;;;6206590;23;20180;-76
2022/03/15 09:39:21;;;;;;;22.23;13.37;;;12.10;99.90;;;;;;6205723;23;20295;-77
2022/03/15 09:41:51;;;;;;;25.97;14.00;;;12.20;99.90;;;;;;6206079;23;20174;-77
2022/03/15 09:44:19;;;;;;;17.97;11.83;;;12.30;99.90;;;;;;6205788;23;20193;-77
2022/03/15 09:46:50;;;;;;;16.17;11.87;;;12.40;99.90;;;;;;6204791;23;20779;-76
2022/03/15 09:49:19;;;;;;;20.70;13.90;;;12.60;99.90;;;;;;6205695;23;20171;-75
2022/03/15 09:51:46;;;;;;;24.00;12.50;;;12.70;99.90;;;;;;6206510;23;20178;-75
2022/03/15 09:54:14;;;;;;;19.60;13.57;;;13.00;99.90;;;;;;6205312;23;20559;-77
2022/03/15 09:56:42;;;;;;;21.87;12.13;;;13.30;99.90;;;;;;6205291;23;20281;-77
2022/03/15 09:59:14;;;;;;;27.23;12.67;;;13.60;99.90;;;;;;6206792;23;20187;-77
2022/03/15 10:01:42;;;;;;;18.43;12.37;;;13.90;99.90;;;;;;6205056;23;20170;-78
2022/03/15 10:04:10;;;;;;;20.13;11.27;;;14.30;99.90;;;;;;6205239;23;20194;-77
2022/03/15 10:06:39;;;;;;;24.67;11.67;;;14.40;99.90;;;;;;6205059;23;20181;-76
2022/03/15 10:09:06;;;;;;;17.47;9.97;;;14.70;99.90;;;;;;6205381;23;20181;-77
2022/03/15 10:11:33;;;;;;;16.27;9.90;;;14.80;99.90;;;;;;6205204;23;20213;-77
2022/03/15 10:14:00;;;;;;;22.00;12.63;;;15.00;99.90;;;;;;6205211;23;20202;-77
2022/03/15 10:16:31;;;;;;;19.60;9.97;;;15.00;99.90;;;;;;6204989;23;20181;-76
2022/03/15 10:18:59;;;;;;;19.33;8.40;;;15.20;99.90;;;;;;6206352;23;20197;-76
2022/03/15 10:21:37;;;;;;;17.10;10.17;;;15.30;99.90;;;;;;6205513;23;20184;-76
2022/03/15 10:24:07;;;;;;;15.50;5.77;;;15.60;99.90;;;;;;6206207;23;20193;-77
2022/03/15 10:26:38;;;;;;;15.05;5.97;;;15.80;99.90;;;;;;6205787;23;20228;-77
2022/03/15 10:29:05;;;;;;;18.45;7.82;;;15.90;99.90;;;;;;6206152;23;20388;-76
2022/03/15 10:31:32;;;;;;;11.13;6.45;;;15.80;99.90;;;;;;6178690;23;20174;-76
2022/03/15 10:34:01;;;;;;;19.77;6.80;;;15.70;99.90;;;;;;6205594;23;20764;-75
2022/03/15 10:36:36;;;;;;;10.33;6.40;;;15.70;99.90;;;;;;6204354;23;20442;-75
2022/03/15 10:39:05;;;;;;;17.17;7.13;;;15.70;99.90;;;;;;6206011;23;20177;-76
2022/03/15 10:41:42;;;;;;;15.23;7.03;;;15.90;99.90;;;;;;6204977;23;20185;-77
2022/03/15 10:44:16;;;;;;;16.77;7.43;;;16.10;99.90;;;;;;6205127;23;20185;-76
2022/03/15 10:46:42;;;;;;;18.25;8.10;;;16.30;99.90;;;;;;6204426;23;20160;-77
2022/03/15 10:49:09;;;;;;;18.33;7.22;;;16.40;99.90;;;;;;6205664;23;20173;-76
2022/03/15 10:51:37;;;;;;;19.25;8.10;;;16.40;99.90;;;;;;6204739;23;20185;-77
2022/03/15 10:54:08;;;;;;;18.83;8.55;;;16.60;99.90;;;;;;6205242;23;20181;-76
2022/03/15 10:56:36;;;;;;;18.48;8.50;;;16.70;99.90;;;;;;6205391;23;20170;-77
2022/03/15 10:59:05;;;;;;;16.65;7.72;;;16.70;99.90;;;;;;6205398;23;20181;-76
2022/03/15 11:01:39;;;;;;;12.95;7.07;;;16.70;99.90;;;;;;6205321;23;20734;-76
2022/03/15 11:04:07;;;;;;;17.10;6.57;;;16.80;99.90;;;;;;6205370;23;20219;-76
2022/03/15 11:06:38;;;;;;;16.02;7.28;;;16.50;99.90;;;;;;6205293;23;20174;-76
2022/03/15 11:09:18;;;;;;;14.35;6.80;;;16.40;99.90;;;;;;6205289;23;20166;-75
2022/03/15 11:11:47;;;;;;;17.25;6.20;;;16.60;99.90;;;;;;6204580;23;20299;-76
2022/03/15 11:14:14;;;;;;;12.13;6.05;;;16.70;99.90;;;;;;6205456;23;20166;-77
2022/03/15 11:16:45;;;;;;;11.07;5.60;;;16.90;99.90;;;;;;6204359;23;20185;-76
2022/03/15 11:19:14;;;;;;;12.82;5.28;;;17.00;99.90;;;;;;6204510;23;20919;-77
2022/03/15 11:21:43;;;;;;;11.05;6.07;;;17.40;99.90;;;;;;6205320;23;20237;-76
2022/03/15 11:24:13;;;;;;;8.88;5.38;;;17.60;99.90;;;;;;6205008;23;20461;-77
2022/03/15 11:26:44;;;;;;;11.35;5.55;;;17.70;99.90;;;;;;6205046;23;20174;-76
2022/03/15 11:29:13;;;;;;;10.88;4.85;;;17.70;99.90;;;;;;6205121;23;20174;-76
2022/03/15 11:31:41;;;;;;;10.18;5.00;;;17.90;99.90;;;;;;6204944;23;20273;-76
2022/03/15 11:34:08;;;;;;;11.25;4.68;;;17.90;99.90;;;;;;6204294;23;20498;-77
2022/03/15 11:36:35;;;;;;;11.27;5.07;;;18.10;99.90;;;;;;6204574;23;20178;-76
2022/03/15 11:39:02;;;;;;;10.73;4.53;;;18.40;99.90;;;;;;6204582;23;20590;-75
2022/03/15 11:41:29;;;;;;;14.70;5.00;;;18.30;99.90;;;;;;6204605;23;20173;-76
2022/03/15 11:44:06;;;;;;;10.48;4.45;;;18.10;99.90;;;;;;6205829;23;20194;-77
2022/03/15 11:46:36;;;;;;;13.30;4.82;;;18.20;99.90;;;;;;6204372;23;20196;-76
2022/03/15 11:49:15;;;;;;;10.13;4.13;;;18.00;99.90;;;;;;6205862;23;20249;-77
2022/03/15 11:51:58;;;;;;;14.02;4.95;;;17.80;99.90;;;;;;6205021;23;20224;-78
2022/03/15 11:54:36;;;;;;;7.88;4.20;;;17.60;99.90;;;;;;6204160;23;20567;-76
2022/03/15 11:57:06;;;;;;;9.93;4.00;;;17.60;99.90;;;;;;6204645;23;20170;-77
2022/03/15 11:59:46;;;;;;;12.32;4.70;;;17.60;99.90;;;;;;6204624;23;20467;-77
2022/03/15 12:02:14;;;;;;;11.98;3.78;;;17.80;99.90;;;;;;6203981;23;20273;-77
2022/03/15 12:04:44;;;;;;;6.15;3.20;;;18.10;99.90;;;;;;6205370;23;20205;-76
2022/03/15 12:07:11;;;;;;;10.82;3.90;;;18.20;99.90;;;;;;6204567;23;20181;-75
2022/03/15 12:09:46;;;;;;;8.23;3.35;;;18.20;99.90;;;;;;6204886;23;20182;-75
2022/03/15 12:12:16;;;;;;;6.90;3.05;;;18.30;99.90;;;;;;6204674;23;20208;-76
2022/03/15 12:14:52;;;;;;;8.52;3.22;;;18.50;99.90;;;;;;6205407;23;20184;-76
2022/03/15 12:17:20;;;;;;;5.20;2.20;;;18.50;99.90;;;;;;6205160;23;20236;-76
2022/03/15 12:19:49;;;;;;;4.15;2.42;;;18.70;99.90;;;;;;6206374;23;20174;-76
2022/03/15 12:22:25;;;;;;;7.40;3.30;;;18.50;99.90;;;;;;6206420;23;20252;-76
2022/03/15 12:25:03;;;;;;;6.07;3.35;;;18.40;99.90;;;;;;6206336;23;20194;-76
2022/03/15 12:27:31;;;;;;;6.20;2.78;;;18.00;99.90;;;;;;6206047;23;20181;-76
2022/03/15 12:30:00;;;;;;;8.15;3.50;;;18.20;99.90;;;;;;6206112;23;20862;-77
2022/03/15 12:32:27;;;;;;;5.60;2.97;;;18.20;99.90;;;;;;6206611;23;20178;-77
2022/03/15 12:34:56;;;;;;;5.43;3.13;;;18.20;99.90;;;;;;6207274;23;20170;-75
2022/03/15 12:37:34;;;;;;;5.53;2.72;;;18.40;99.90;;;;;;6206048;23;20591;-77
2022/03/15 12:40:04;;;;;;;8.25;2.58;;;18.30;99.90;;;;;;6206941;23;20213;-77
2022/03/15 12:42:31;;;;;;;6.75;3.13;;;18.10;99.90;;;;;;6205630;23;20178;-76
2022/03/15 12:45:04;;;;;;;5.70;3.33;;;18.10;99.90;;;;;;6207226;23;20198;-75
2022/03/15 12:47:32;;;;;;;4.00;2.40;;;18.00;99.90;;;;;;6206622;23;20174;-76
2022/03/15 12:50:08;;;;;;;5.53;2.80;;;18.30;99.90;;;;;;6206217;23;20174;-76